sensor_id;sensor_type;location;lat;lon;timestamp;P1;durP1;ratioP1;P2;durP2;ratioP2
63699;SDS011;49845;47.130;142.766;2022-10-19T00:01:11;3.40;;;1.40;;
63699;SDS011;49845;47.130;142.766;2022-10-19T04:37:11;2.45;;;1.00;;
63699;SDS011;49845;47.130;142.766;2022-10-19T05:51:31;4.32;;;1.35;;
63699;SDS011;49845;47.130;142.766;2022-10-19T05:54:18;5.60;;;1.10;;
63699;SDS011;49845;47.130;142.766;2022-10-19T05:56:55;8.20;;;1.48;;
63699;SDS011;49845;47.130;142.766;2022-10-19T05:59:40;3.60;;;1.40;;
63699;SDS011;49845;47.130;142.766;2022-10-19T06:02:26;2.75;;;1.27;;
63699;SDS011;49845;47.130;142.766;2022-10-19T06:05:08;4.07;;;1.40;;
63699;SDS011;49845;47.130;142.766;2022-10-19T06:07:54;3.38;;;1.40;;
63699;SDS011;49845;47.130;142.766;2022-10-19T06:10:43;3.13;;;1.50;;
63699;SDS011;49845;47.130;142.766;2022-10-19T06:13:19;3.08;;;1.42;;
63699;SDS011;49845;47.130;142.766;2022-10-19T06:16:17;3.45;;;1.20;;
63699;SDS011;49845;47.130;142.766;2022-10-19T06:19:00;6.47;;;1.77;;
63699;SDS011;49845;47.130;142.766;2022-10-19T06:21:51;2.90;;;1.30;;
63699;SDS011;49845;47.130;142.766;2022-10-19T06:25:08;1.80;;;1.10;;
63699;SDS011;49845;47.130;142.766;2022-10-19T06:28:09;2.10;;;1.38;;
63699;SDS011;49845;47.130;142.766;2022-10-19T06:30:53;2.78;;;1.20;;
63699;SDS011;49845;47.130;142.766;2022-10-19T06:33:37;6.30;;;1.30;;
63699;SDS011;49845;47.130;142.766;2022-10-19T06:36:19;4.00;;;1.20;;
63699;SDS011;49845;47.130;142.766;2022-10-19T06:42:02;5.45;;;1.52;;
63699;SDS011;49845;47.130;142.766;2022-10-19T06:44:46;2.25;;;1.70;;
63699;SDS011;49845;47.130;142.766;2022-10-19T06:47:24;3.22;;;1.52;;
63699;SDS011;49845;47.130;142.766;2022-10-19T06:50:34;6.32;;;1.60;;
63699;SDS011;49845;47.130;142.766;2022-10-19T06:53:28;13.70;;;8.13;;
63699;SDS011;49845;47.130;142.766;2022-10-19T06:56:09;9.75;;;7.88;;
63699;SDS011;49845;47.130;142.766;2022-10-19T06:58:53;7.53;;;3.65;;
63699;SDS011;49845;47.130;142.766;2022-10-19T07:01:41;8.52;;;2.72;;
63699;SDS011;49845;47.130;142.766;2022-10-19T07:04:29;3.17;;;2.10;;
63699;SDS011;49845;47.130;142.766;2022-10-19T07:07:12;8.95;;;3.40;;
63699;SDS011;49845;47.130;142.766;2022-10-19T07:10:00;3.78;;;2.20;;
63699;SDS011;49845;47.130;142.766;2022-10-19T07:12:45;7.93;;;3.30;;
63699;SDS011;49845;47.130;142.766;2022-10-19T07:15:47;8.00;;;3.58;;
63699;SDS011;49845;47.130;142.766;2022-10-19T07:18:30;5.07;;;2.20;;
63699;SDS011;49845;47.130;142.766;2022-10-19T07:21:14;4.32;;;1.83;;
63699;SDS011;49845;47.130;142.766;2022-10-19T07:23:55;6.50;;;2.85;;
63699;SDS011;49845;47.130;142.766;2022-10-19T07:26:39;14.43;;;5.50;;
63699;SDS011;49845;47.130;142.766;2022-10-19T07:29:32;7.28;;;3.20;;
63699;SDS011;49845;47.130;142.766;2022-10-19T07:32:17;2.60;;;1.50;;
63699;SDS011;49845;47.130;142.766;2022-10-19T07:35:18;6.97;;;2.10;;
63699;SDS011;49845;47.130;142.766;2022-10-19T07:38:01;3.80;;;1.85;;
63699;SDS011;49845;47.130;142.766;2022-10-19T07:40:39;3.42;;;1.98;;
63699;SDS011;49845;47.130;142.766;2022-10-19T07:43:32;5.10;;;3.45;;
63699;SDS011;49845;47.130;142.766;2022-10-19T07:46:14;4.88;;;2.90;;
63699;SDS011;49845;47.130;142.766;2022-10-19T07:48:58;26.92;;;10.50;;
63699;SDS011;49845;47.130;142.766;2022-10-19T07:51:34;31.00;;;10.18;;
63699;SDS011;49845;47.130;142.766;2022-10-19T07:54:24;22.55;;;8.75;;
63699;SDS011;49845;47.130;142.766;2022-10-19T08:00:34;7.80;;;2.90;;
63699;SDS011;49845;47.130;142.766;2022-10-19T08:03:24;7.18;;;2.72;;
63699;SDS011;49845;47.130;142.766;2022-10-19T08:06:33;5.65;;;2.40;;
63699;SDS011;49845;47.130;142.766;2022-10-19T08:09:47;22.30;;;11.82;;
63699;SDS011;49845;47.130;142.766;2022-10-19T08:12:30;11.38;;;5.72;;
63699;SDS011;49845;47.130;142.766;2022-10-19T08:15:46;22.75;;;9.55;;
63699;SDS011;49845;47.130;142.766;2022-10-19T08:18:45;29.13;;;17.08;;
63699;SDS011;49845;47.130;142.766;2022-10-19T08:21:35;11.98;;;6.13;;
63699;SDS011;49845;47.130;142.766;2022-10-19T08:24:26;8.95;;;6.75;;
63699;SDS011;49845;47.130;142.766;2022-10-19T08:27:06;13.20;;;6.07;;
63699;SDS011;49845;47.130;142.766;2022-10-19T08:29:44;8.23;;;2.85;;
63699;SDS011;49845;47.130;142.766;2022-10-19T08:32:31;7.25;;;3.20;;
63699;SDS011;49845;47.130;142.766;2022-10-19T08:35:21;5.68;;;2.35;;
63699;SDS011;49845;47.130;142.766;2022-10-19T08:38:20;8.18;;;3.28;;
63699;SDS011;49845;47.130;142.766;2022-10-19T08:40:56;11.68;;;5.10;;
63699;SDS011;49845;47.130;142.766;2022-10-19T08:43:46;10.75;;;4.70;;
63699;SDS011;49845;47.130;142.766;2022-10-19T08:46:47;8.25;;;3.42;;
63699;SDS011;49845;47.130;142.766;2022-10-19T08:49:34;10.02;;;3.63;;
63699;SDS011;49845;47.130;142.766;2022-10-19T09:01:52;56.92;;;18.10;;
63699;SDS011;49845;47.130;142.766;2022-10-19T09:04:37;43.75;;;16.27;;
63699;SDS011;49845;47.130;142.766;2022-10-19T09:07:22;25.02;;;8.52;;
63699;SDS011;49845;47.130;142.766;2022-10-19T09:10:17;9.63;;;4.38;;
63699;SDS011;49845;47.130;142.766;2022-10-19T09:13:10;11.68;;;4.38;;
63699;SDS011;49845;47.130;142.766;2022-10-19T09:16:25;8.27;;;2.65;;
63699;SDS011;49845;47.130;142.766;2022-10-19T09:19:19;8.30;;;2.72;;
63699;SDS011;49845;47.130;142.766;2022-10-19T09:22:04;5.47;;;2.30;;
63699;SDS011;49845;47.130;142.766;2022-10-19T09:24:48;3.58;;;2.25;;
63699;SDS011;49845;47.130;142.766;2022-10-19T09:27:41;5.88;;;2.45;;
63699;SDS011;49845;47.130;142.766;2022-10-19T09:30:23;5.40;;;4.05;;
63699;SDS011;49845;47.130;142.766;2022-10-19T09:33:36;4.57;;;3.40;;
63699;SDS011;49845;47.130;142.766;2022-10-19T09:36:44;7.10;;;3.38;;
63699;SDS011;49845;47.130;142.766;2022-10-19T09:39:30;6.97;;;2.60;;
63699;SDS011;49845;47.130;142.766;2022-10-19T09:42:24;6.65;;;2.15;;
63699;SDS011;49845;47.130;142.766;2022-10-19T09:45:11;6.40;;;2.30;;
63699;SDS011;49845;47.130;142.766;2022-10-19T09:48:19;8.55;;;2.30;;
63699;SDS011;49845;47.130;142.766;2022-10-19T09:51:17;7.93;;;2.20;;
63699;SDS011;49845;47.130;142.766;2022-10-19T09:54:31;5.30;;;2.90;;
63699;SDS011;49845;47.130;142.766;2022-10-19T09:57:19;10.57;;;3.35;;
63699;SDS011;49845;47.130;142.766;2022-10-19T10:00:19;7.88;;;3.50;;
63699;SDS011;49845;47.130;142.766;2022-10-19T10:03:37;8.32;;;4.95;;
63699;SDS011;49845;47.130;142.766;2022-10-19T10:06:17;34.35;;;16.98;;
63699;SDS011;49845;47.130;142.766;2022-10-19T10:09:21;24.88;;;14.20;;
63699;SDS011;49845;47.130;142.766;2022-10-19T10:12:05;14.50;;;7.50;;
63699;SDS011;49845;47.130;142.766;2022-10-19T10:17:37;12.55;;;5.18;;
63699;SDS011;49845;47.130;142.766;2022-10-19T10:20:17;6.15;;;3.50;;
63699;SDS011;49845;47.130;142.766;2022-10-19T10:25:58;8.00;;;4.60;;
63699;SDS011;49845;47.130;142.766;2022-10-19T10:31:42;10.38;;;5.53;;
63699;SDS011;49845;47.130;142.766;2022-10-19T10:34:42;12.38;;;6.40;;
63699;SDS011;49845;47.130;142.766;2022-10-19T10:37:41;9.00;;;4.05;;
63699;SDS011;49845;47.130;142.766;2022-10-19T10:40:50;24.98;;;10.88;;
63699;SDS011;49845;47.130;142.766;2022-10-19T10:43:51;15.23;;;8.32;;
63699;SDS011;49845;47.130;142.766;2022-10-19T10:46:44;14.55;;;7.03;;
63699;SDS011;49845;47.130;142.766;2022-10-19T10:49:32;9.32;;;3.63;;
63699;SDS011;49845;47.130;142.766;2022-10-19T10:52:18;81.70;;;28.92;;
63699;SDS011;49845;47.130;142.766;2022-10-19T10:55:19;44.88;;;18.45;;
63699;SDS011;49845;47.130;142.766;2022-10-19T10:58:25;20.83;;;7.65;;
63699;SDS011;49845;47.130;142.766;2022-10-19T11:01:39;10.82;;;4.68;;
63699;SDS011;49845;47.130;142.766;2022-10-19T11:04:38;9.45;;;3.50;;
63699;SDS011;49845;47.130;142.766;2022-10-19T11:07:27;7.43;;;4.10;;
63699;SDS011;49845;47.130;142.766;2022-10-19T11:10:12;13.25;;;5.10;;
63699;SDS011;49845;47.130;142.766;2022-10-19T11:13:08;13.35;;;5.47;;
63699;SDS011;49845;47.130;142.766;2022-10-19T11:15:52;20.80;;;6.63;;
63699;SDS011;49845;47.130;142.766;2022-10-19T11:18:49;19.45;;;6.90;;
63699;SDS011;49845;47.130;142.766;2022-10-19T11:22:01;20.88;;;7.53;;
63699;SDS011;49845;47.130;142.766;2022-10-19T11:24:54;32.42;;;9.30;;
63699;SDS011;49845;47.130;142.766;2022-10-19T11:27:59;33.95;;;11.13;;
63699;SDS011;49845;47.130;142.766;2022-10-19T11:33:54;32.55;;;11.27;;
63699;SDS011;49845;47.130;142.766;2022-10-19T11:36:49;25.00;;;10.18;;
63699;SDS011;49845;47.130;142.766;2022-10-19T11:39:36;24.83;;;10.05;;
63699;SDS011;49845;47.130;142.766;2022-10-19T11:42:37;26.55;;;9.82;;
63699;SDS011;49845;47.130;142.766;2022-10-19T11:45:29;20.38;;;8.88;;
63699;SDS011;49845;47.130;142.766;2022-10-19T11:51:44;42.47;;;15.40;;
63699;SDS011;49845;47.130;142.766;2022-10-19T11:54:34;33.80;;;15.23;;
63699;SDS011;49845;47.130;142.766;2022-10-19T11:57:37;58.28;;;22.70;;
63699;SDS011;49845;47.130;142.766;2022-10-19T12:00:32;51.03;;;20.75;;
63699;SDS011;49845;47.130;142.766;2022-10-19T12:18:50;56.40;;;23.50;;
63699;SDS011;49845;47.130;142.766;2022-10-19T12:21:44;48.38;;;18.90;;
63699;SDS011;49845;47.130;142.766;2022-10-19T12:24:48;48.55;;;17.90;;
63699;SDS011;49845;47.130;142.766;2022-10-19T12:27:42;52.50;;;18.65;;
63699;SDS011;49845;47.130;142.766;2022-10-19T12:33:28;43.10;;;18.63;;
63699;SDS011;49845;47.130;142.766;2022-10-19T12:36:30;46.28;;;19.05;;
63699;SDS011;49845;47.130;142.766;2022-10-19T12:39:33;44.25;;;17.30;;
63699;SDS011;49845;47.130;142.766;2022-10-19T12:42:46;47.65;;;18.55;;
63699;SDS011;49845;47.130;142.766;2022-10-19T12:46:02;57.30;;;18.45;;
63699;SDS011;49845;47.130;142.766;2022-10-19T12:55:44;37.28;;;14.93;;
63699;SDS011;49845;47.130;142.766;2022-10-19T12:58:31;38.17;;;13.38;;
63699;SDS011;49845;47.130;142.766;2022-10-19T13:01:26;32.42;;;13.18;;
63699;SDS011;49845;47.130;142.766;2022-10-19T13:04:17;30.75;;;13.50;;
63699;SDS011;49845;47.130;142.766;2022-10-19T13:07:22;31.80;;;12.10;;
63699;SDS011;49845;47.130;142.766;2022-10-19T13:10:38;28.40;;;12.85;;
63699;SDS011;49845;47.130;142.766;2022-10-19T13:13:49;30.02;;;13.70;;
63699;SDS011;49845;47.130;142.766;2022-10-19T13:16:39;26.15;;;11.60;;
63699;SDS011;49845;47.130;142.766;2022-10-19T13:19:32;39.70;;;12.95;;
63699;SDS011;49845;47.130;142.766;2022-10-19T13:22:25;34.20;;;13.68;;
63699;SDS011;49845;47.130;142.766;2022-10-19T13:25:21;31.58;;;13.43;;
63699;SDS011;49845;47.130;142.766;2022-10-19T13:31:32;33.00;;;12.30;;
63699;SDS011;49845;47.130;142.766;2022-10-19T13:34:16;29.02;;;12.63;;
63699;SDS011;49845;47.130;142.766;2022-10-19T13:37:28;22.52;;;9.80;;
63699;SDS011;49845;47.130;142.766;2022-10-19T13:40:10;25.00;;;9.73;;
63699;SDS011;49845;47.130;142.766;2022-10-19T13:43:11;25.60;;;10.10;;
63699;SDS011;49845;47.130;142.766;2022-10-19T13:45:58;21.67;;;9.43;;
63699;SDS011;49845;47.130;142.766;2022-10-19T13:55:50;21.10;;;9.13;;
63699;SDS011;49845;47.130;142.766;2022-10-19T14:05:46;28.55;;;10.38;;
63699;SDS011;49845;47.130;142.766;2022-10-19T14:09:04;22.60;;;8.88;;
63699;SDS011;49845;47.130;142.766;2022-10-19T14:11:58;20.83;;;9.32;;
63699;SDS011;49845;47.130;142.766;2022-10-19T14:14:45;17.33;;;7.22;;
63699;SDS011;49845;47.130;142.766;2022-10-19T14:17:24;15.43;;;7.43;;
63699;SDS011;49845;47.130;142.766;2022-10-19T14:20:21;15.85;;;6.18;;
63699;SDS011;49845;47.130;142.766;2022-10-19T14:23:26;16.55;;;6.90;;
63699;SDS011;49845;47.130;142.766;2022-10-19T14:26:04;15.93;;;7.63;;
63699;SDS011;49845;47.130;142.766;2022-10-19T14:28:58;16.23;;;6.93;;
63699;SDS011;49845;47.130;142.766;2022-10-19T14:31:41;22.67;;;8.35;;
63699;SDS011;49845;47.130;142.766;2022-10-19T14:34:40;18.00;;;7.90;;
63699;SDS011;49845;47.130;142.766;2022-10-19T14:37:28;19.65;;;7.57;;
63699;SDS011;49845;47.130;142.766;2022-10-19T14:43:12;20.75;;;8.15;;
63699;SDS011;49845;47.130;142.766;2022-10-19T14:46:11;20.90;;;7.80;;
63699;SDS011;49845;47.130;142.766;2022-10-19T14:48:57;16.02;;;6.95;;
63699;SDS011;49845;47.130;142.766;2022-10-19T14:51:41;16.27;;;7.03;;
63699;SDS011;49845;47.130;142.766;2022-10-19T14:54:30;21.27;;;6.65;;
63699;SDS011;49845;47.130;142.766;2022-10-19T14:57:34;14.15;;;6.28;;
63699;SDS011;49845;47.130;142.766;2022-10-19T15:00:16;17.38;;;5.93;;
63699;SDS011;49845;47.130;142.766;2022-10-19T15:02:54;13.35;;;5.63;;
63699;SDS011;49845;47.130;142.766;2022-10-19T15:05:45;15.05;;;5.32;;
63699;SDS011;49845;47.130;142.766;2022-10-19T15:08:28;15.43;;;6.25;;
63699;SDS011;49845;47.130;142.766;2022-10-19T15:11:25;17.90;;;7.25;;
63699;SDS011;49845;47.130;142.766;2022-10-19T15:14:24;18.80;;;6.90;;
63699;SDS011;49845;47.130;142.766;2022-10-19T15:17:20;16.10;;;6.67;;
63699;SDS011;49845;47.130;142.766;2022-10-19T15:20:19;18.20;;;6.82;;
63699;SDS011;49845;47.130;142.766;2022-10-19T15:23:40;19.17;;;6.88;;
63699;SDS011;49845;47.130;142.766;2022-10-19T15:26:35;15.40;;;6.75;;
63699;SDS011;49845;47.130;142.766;2022-10-19T15:29:18;15.13;;;6.45;;
63699;SDS011;49845;47.130;142.766;2022-10-19T15:32:17;16.08;;;7.20;;
63699;SDS011;49845;47.130;142.766;2022-10-19T15:35:16;19.73;;;7.32;;
63699;SDS011;49845;47.130;142.766;2022-10-19T15:40:42;13.05;;;6.32;;
63699;SDS011;49845;47.130;142.766;2022-10-19T15:43:36;15.20;;;7.00;;
63699;SDS011;49845;47.130;142.766;2022-10-19T15:46:29;16.67;;;6.93;;
63699;SDS011;49845;47.130;142.766;2022-10-19T15:52:37;15.98;;;6.78;;
63699;SDS011;49845;47.130;142.766;2022-10-19T15:55:17;17.63;;;5.80;;
63699;SDS011;49845;47.130;142.766;2022-10-19T15:57:57;15.75;;;6.53;;
63699;SDS011;49845;47.130;142.766;2022-10-19T16:00:48;13.65;;;5.65;;
63699;SDS011;49845;47.130;142.766;2022-10-19T16:03:39;18.42;;;6.22;;
63699;SDS011;49845;47.130;142.766;2022-10-19T16:06:38;12.90;;;5.75;;
63699;SDS011;49845;47.130;142.766;2022-10-19T16:09:18;14.57;;;5.55;;
63699;SDS011;49845;47.130;142.766;2022-10-19T16:12:13;13.80;;;5.38;;
63699;SDS011;49845;47.130;142.766;2022-10-19T16:14:56;14.35;;;5.60;;
63699;SDS011;49845;47.130;142.766;2022-10-19T16:17:53;17.15;;;5.90;;
63699;SDS011;49845;47.130;142.766;2022-10-19T16:26:24;12.77;;;5.05;;
63699;SDS011;49845;47.130;142.766;2022-10-19T16:29:16;15.55;;;5.55;;
63699;SDS011;49845;47.130;142.766;2022-10-19T16:31:58;11.15;;;4.68;;
63699;SDS011;49845;47.130;142.766;2022-10-19T16:34:48;13.90;;;4.43;;
63699;SDS011;49845;47.130;142.766;2022-10-19T16:37:33;11.17;;;4.77;;
63699;SDS011;49845;47.130;142.766;2022-10-19T16:40:16;11.38;;;4.50;;
63699;SDS011;49845;47.130;142.766;2022-10-19T16:43:15;9.73;;;4.40;;
63699;SDS011;49845;47.130;142.766;2022-10-19T16:45:53;8.65;;;3.83;;
63699;SDS011;49845;47.130;142.766;2022-10-19T16:48:38;8.40;;;3.72;;
63699;SDS011;49845;47.130;142.766;2022-10-19T16:51:27;8.25;;;3.67;;
63699;SDS011;49845;47.130;142.766;2022-10-19T16:54:17;8.57;;;3.33;;
63699;SDS011;49845;47.130;142.766;2022-10-19T16:57:05;15.07;;;4.55;;
63699;SDS011;49845;47.130;142.766;2022-10-19T17:00:01;11.35;;;4.20;;
63699;SDS011;49845;47.130;142.766;2022-10-19T17:02:49;9.13;;;3.22;;
63699;SDS011;49845;47.130;142.766;2022-10-19T17:05:36;7.47;;;3.45;;
63699;SDS011;49845;47.130;142.766;2022-10-19T17:08:19;9.43;;;3.25;;
63699;SDS011;49845;47.130;142.766;2022-10-19T17:11:56;9.75;;;3.83;;
63699;SDS011;49845;47.130;142.766;2022-10-19T17:14:58;8.35;;;3.00;;
63699;SDS011;49845;47.130;142.766;2022-10-19T17:18:12;9.40;;;3.30;;
63699;SDS011;49845;47.130;142.766;2022-10-19T17:20:47;5.32;;;2.40;;
63699;SDS011;49845;47.130;142.766;2022-10-19T17:23:48;6.57;;;2.90;;
63699;SDS011;49845;47.130;142.766;2022-10-19T17:26:32;12.00;;;2.90;;
63699;SDS011;49845;47.130;142.766;2022-10-19T17:32:39;7.13;;;2.65;;
63699;SDS011;49845;47.130;142.766;2022-10-19T17:35:16;10.23;;;2.90;;
63699;SDS011;49845;47.130;142.766;2022-10-19T17:37:57;6.50;;;2.63;;
63699;SDS011;49845;47.130;142.766;2022-10-19T17:40:48;10.00;;;3.15;;
63699;SDS011;49845;47.130;142.766;2022-10-19T17:43:26;5.78;;;2.92;;
63699;SDS011;49845;47.130;142.766;2022-10-19T17:46:14;10.50;;;2.85;;
63699;SDS011;49845;47.130;142.766;2022-10-19T17:48:53;6.57;;;2.55;;
63699;SDS011;49845;47.130;142.766;2022-10-19T17:51:49;8.68;;;2.55;;
63699;SDS011;49845;47.130;142.766;2022-10-19T17:54:49;7.10;;;2.70;;
63699;SDS011;49845;47.130;142.766;2022-10-19T17:57:44;5.95;;;2.78;;
63699;SDS011;49845;47.130;142.766;2022-10-19T18:00:27;7.30;;;2.33;;
63699;SDS011;49845;47.130;142.766;2022-10-19T18:03:06;6.78;;;2.67;;
63699;SDS011;49845;47.130;142.766;2022-10-19T18:06:02;9.13;;;2.47;;
63699;SDS011;49845;47.130;142.766;2022-10-19T18:08:39;5.78;;;2.15;;
63699;SDS011;49845;47.130;142.766;2022-10-19T18:11:24;4.65;;;2.47;;
63699;SDS011;49845;47.130;142.766;2022-10-19T18:14:05;6.70;;;3.08;;
63699;SDS011;49845;47.130;142.766;2022-10-19T18:17:00;8.85;;;2.85;;
63699;SDS011;49845;47.130;142.766;2022-10-19T18:19:38;5.15;;;2.40;;
63699;SDS011;49845;47.130;142.766;2022-10-19T18:25:17;12.88;;;3.60;;
63699;SDS011;49845;47.130;142.766;2022-10-19T18:28:16;8.48;;;3.30;;
63699;SDS011;49845;47.130;142.766;2022-10-19T18:31:06;5.03;;;2.65;;
63699;SDS011;49845;47.130;142.766;2022-10-19T18:36:41;11.50;;;3.03;;
63699;SDS011;49845;47.130;142.766;2022-10-19T18:39:47;8.77;;;2.63;;
63699;SDS011;49845;47.130;142.766;2022-10-19T18:42:31;5.35;;;2.95;;
63699;SDS011;49845;47.130;142.766;2022-10-19T18:45:14;14.02;;;2.83;;
63699;SDS011;49845;47.130;142.766;2022-10-19T18:48:14;6.57;;;3.10;;
63699;SDS011;49845;47.130;142.766;2022-10-19T18:51:08;7.43;;;2.85;;
63699;SDS011;49845;47.130;142.766;2022-10-19T18:54:09;6.68;;;2.65;;
63699;SDS011;49845;47.130;142.766;2022-10-19T18:56:58;6.25;;;2.90;;
63699;SDS011;49845;47.130;142.766;2022-10-19T18:59:51;9.98;;;3.05;;
63699;SDS011;49845;47.130;142.766;2022-10-19T19:02:27;10.35;;;3.17;;
63699;SDS011;49845;47.130;142.766;2022-10-19T19:05:16;11.02;;;3.90;;
63699;SDS011;49845;47.130;142.766;2022-10-19T19:07:59;15.73;;;4.13;;
63699;SDS011;49845;47.130;142.766;2022-10-19T19:10:48;14.05;;;4.72;;
63699;SDS011;49845;47.130;142.766;2022-10-19T19:13:26;10.05;;;4.20;;
63699;SDS011;49845;47.130;142.766;2022-10-19T19:16:19;9.68;;;4.28;;
63699;SDS011;49845;47.130;142.766;2022-10-19T19:19:16;9.02;;;3.25;;
63699;SDS011;49845;47.130;142.766;2022-10-19T19:22:10;10.05;;;3.88;;
63699;SDS011;49845;47.130;142.766;2022-10-19T19:24:56;7.50;;;3.00;;
63699;SDS011;49845;47.130;142.766;2022-10-19T19:27:45;11.65;;;3.35;;
63699;SDS011;49845;47.130;142.766;2022-10-19T19:33:18;8.43;;;3.13;;
63699;SDS011;49845;47.130;142.766;2022-10-19T19:36:02;5.15;;;3.08;;
63699;SDS011;49845;47.130;142.766;2022-10-19T19:38:52;11.30;;;2.90;;
63699;SDS011;49845;47.130;142.766;2022-10-19T19:41:35;7.13;;;2.60;;
63699;SDS011;49845;47.130;142.766;2022-10-19T19:44:13;6.70;;;2.70;;
63699;SDS011;49845;47.130;142.766;2022-10-19T19:47:00;10.27;;;2.80;;
63699;SDS011;49845;47.130;142.766;2022-10-19T19:49:39;9.68;;;2.85;;
63699;SDS011;49845;47.130;142.766;2022-10-19T19:52:22;7.97;;;2.97;;
63699;SDS011;49845;47.130;142.766;2022-10-19T19:55:02;10.23;;;3.03;;
63699;SDS011;49845;47.130;142.766;2022-10-19T19:57:54;5.15;;;3.03;;
63699;SDS011;49845;47.130;142.766;2022-10-19T20:00:47;7.43;;;2.55;;
63699;SDS011;49845;47.130;142.766;2022-10-19T20:03:35;4.70;;;2.90;;
63699;SDS011;49845;47.130;142.766;2022-10-19T20:06:20;8.13;;;2.65;;
63699;SDS011;49845;47.130;142.766;2022-10-19T20:09:09;4.97;;;2.85;;
63699;SDS011;49845;47.130;142.766;2022-10-19T20:14:29;5.30;;;3.08;;
63699;SDS011;49845;47.130;142.766;2022-10-19T20:17:17;9.73;;;2.90;;
63699;SDS011;49845;47.130;142.766;2022-10-19T20:20:26;4.93;;;2.80;;
63699;SDS011;49845;47.130;142.766;2022-10-19T20:23:23;10.57;;;2.88;;
63699;SDS011;49845;47.130;142.766;2022-10-19T20:25:58;11.88;;;3.50;;
63699;SDS011;49845;47.130;142.766;2022-10-19T20:28:45;10.77;;;3.40;;
63699;SDS011;49845;47.130;142.766;2022-10-19T20:31:31;13.23;;;3.58;;
63699;SDS011;49845;47.130;142.766;2022-10-19T20:34:15;6.35;;;3.13;;
63699;SDS011;49845;47.130;142.766;2022-10-19T20:37:03;8.68;;;3.33;;
63699;SDS011;49845;47.130;142.766;2022-10-19T20:39:44;8.05;;;2.80;;
63699;SDS011;49845;47.130;142.766;2022-10-19T20:42:51;11.90;;;2.90;;
63699;SDS011;49845;47.130;142.766;2022-10-19T20:45:32;6.65;;;2.63;;
63699;SDS011;49845;47.130;142.766;2022-10-19T20:48:16;5.82;;;3.03;;
63699;SDS011;49845;47.130;142.766;2022-10-19T20:51:06;10.32;;;3.00;;
63699;SDS011;49845;47.130;142.766;2022-10-19T20:56:47;9.93;;;3.33;;
63699;SDS011;49845;47.130;142.766;2022-10-19T20:59:39;9.27;;;3.35;;
63699;SDS011;49845;47.130;142.766;2022-10-19T21:02:33;10.10;;;3.67;;
63699;SDS011;49845;47.130;142.766;2022-10-19T21:05:11;8.13;;;3.03;;
63699;SDS011;49845;47.130;142.766;2022-10-19T21:07:49;9.82;;;4.60;;
63699;SDS011;49845;47.130;142.766;2022-10-19T21:10:28;8.43;;;2.97;;
63699;SDS011;49845;47.130;142.766;2022-10-19T21:13:07;8.65;;;3.65;;
63699;SDS011;49845;47.130;142.766;2022-10-19T21:15:46;10.90;;;4.25;;
63699;SDS011;49845;47.130;142.766;2022-10-19T21:18:41;9.45;;;4.15;;
63699;SDS011;49845;47.130;142.766;2022-10-19T21:21:25;8.90;;;4.15;;
63699;SDS011;49845;47.130;142.766;2022-10-19T21:24:03;15.32;;;4.60;;
63699;SDS011;49845;47.130;142.766;2022-10-19T21:26:59;11.05;;;4.00;;
63699;SDS011;49845;47.130;142.766;2022-10-19T21:30:15;10.55;;;4.07;;
63699;SDS011;49845;47.130;142.766;2022-10-19T21:32:56;10.93;;;4.13;;
63699;SDS011;49845;47.130;142.766;2022-10-19T21:35:34;7.03;;;3.97;;
63699;SDS011;49845;47.130;142.766;2022-10-19T21:38:12;13.13;;;4.80;;
63699;SDS011;49845;47.130;142.766;2022-10-19T21:41:01;13.80;;;4.95;;
63699;SDS011;49845;47.130;142.766;2022-10-19T21:43:56;20.92;;;5.40;;
63699;SDS011;49845;47.130;142.766;2022-10-19T21:46:57;15.35;;;5.65;;
63699;SDS011;49845;47.130;142.766;2022-10-19T21:49:34;19.10;;;5.82;;
63699;SDS011;49845;47.130;142.766;2022-10-19T21:52:13;12.40;;;5.68;;
63699;SDS011;49845;47.130;142.766;2022-10-19T21:55:00;14.63;;;5.38;;
63699;SDS011;49845;47.130;142.766;2022-10-19T21:57:36;13.07;;;5.45;;
63699;SDS011;49845;47.130;142.766;2022-10-19T22:00:34;18.55;;;6.53;;
63699;SDS011;49845;47.130;142.766;2022-10-19T22:03:55;16.93;;;6.57;;
63699;SDS011;49845;47.130;142.766;2022-10-19T22:06:51;19.13;;;7.15;;
63699;SDS011;49845;47.130;142.766;2022-10-19T22:09:41;18.10;;;6.45;;
63699;SDS011;49845;47.130;142.766;2022-10-19T22:12:25;18.27;;;6.97;;
63699;SDS011;49845;47.130;142.766;2022-10-19T22:15:03;24.50;;;7.18;;
63699;SDS011;49845;47.130;142.766;2022-10-19T22:17:48;16.73;;;7.47;;
63699;SDS011;49845;47.130;142.766;2022-10-19T22:20:30;21.23;;;7.47;;
63699;SDS011;49845;47.130;142.766;2022-10-19T22:23:13;18.15;;;6.40;;
63699;SDS011;49845;47.130;142.766;2022-10-19T22:25:52;18.83;;;6.90;;
63699;SDS011;49845;47.130;142.766;2022-10-19T22:28:40;29.35;;;7.03;;
63699;SDS011;49845;47.130;142.766;2022-10-19T22:31:20;21.17;;;6.90;;
63699;SDS011;49845;47.130;142.766;2022-10-19T22:34:10;23.17;;;6.47;;
63699;SDS011;49845;47.130;142.766;2022-10-19T22:36:52;27.52;;;6.78;;
63699;SDS011;49845;47.130;142.766;2022-10-19T22:39:47;21.13;;;6.68;;
63699;SDS011;49845;47.130;142.766;2022-10-19T22:42:33;28.30;;;7.60;;
63699;SDS011;49845;47.130;142.766;2022-10-19T22:48:35;28.70;;;7.70;;
63699;SDS011;49845;47.130;142.766;2022-10-19T22:51:20;23.42;;;6.15;;
63699;SDS011;49845;47.130;142.766;2022-10-19T22:53:59;18.10;;;6.05;;
63699;SDS011;49845;47.130;142.766;2022-10-19T22:56:39;18.85;;;6.85;;
63699;SDS011;49845;47.130;142.766;2022-10-19T22:59:19;30.25;;;7.38;;
63699;SDS011;49845;47.130;142.766;2022-10-19T23:01:58;19.65;;;6.32;;
63699;SDS011;49845;47.130;142.766;2022-10-19T23:04:44;23.45;;;7.03;;
63699;SDS011;49845;47.130;142.766;2022-10-19T23:07:22;42.30;;;7.90;;
63699;SDS011;49845;47.130;142.766;2022-10-19T23:10:08;47.95;;;9.82;;
63699;SDS011;49845;47.130;142.766;2022-10-19T23:12:53;30.80;;;9.32;;
63699;SDS011;49845;47.130;142.766;2022-10-19T23:15:41;31.17;;;9.98;;
63699;SDS011;49845;47.130;142.766;2022-10-19T23:18:26;25.77;;;8.30;;
63699;SDS011;49845;47.130;142.766;2022-10-19T23:21:10;27.45;;;8.68;;
63699;SDS011;49845;47.130;142.766;2022-10-19T23:26:55;34.75;;;10.05;;
63699;SDS011;49845;47.130;142.766;2022-10-19T23:29:31;28.50;;;9.00;;
63699;SDS011;49845;47.130;142.766;2022-10-19T23:32:18;27.30;;;7.90;;
63699;SDS011;49845;47.130;142.766;2022-10-19T23:34:59;24.98;;;8.63;;
63699;SDS011;49845;47.130;142.766;2022-10-19T23:38:01;35.72;;;9.57;;
63699;SDS011;49845;47.130;142.766;2022-10-19T23:40:38;32.25;;;8.13;;
63699;SDS011;49845;47.130;142.766;2022-10-19T23:43:26;35.63;;;8.55;;
63699;SDS011;49845;47.130;142.766;2022-10-19T23:46:21;29.42;;;7.35;;
63699;SDS011;49845;47.130;142.766;2022-10-19T23:49:05;26.70;;;8.63;;
63699;SDS011;49845;47.130;142.766;2022-10-19T23:51:51;15.88;;;5.65;;
63699;SDS011;49845;47.130;142.766;2022-10-19T23:54:56;21.20;;;5.88;;
63699;SDS011;49845;47.130;142.766;2022-10-19T23:57:53;22.08;;;7.10;;
